createdAt,value
2023-07-31T00:02:17.414Z,88826.13
2023-07-31T00:05:02.573Z,88822.81
2023-07-31T00:07:47.698Z,88824.94
2023-07-31T00:10:32.976Z,88819.91
2023-07-31T00:13:17.695Z,88824.69
2023-07-31T00:16:02.974Z,88815.78
2023-07-31T00:18:48.020Z,88818.25
2023-07-31T00:21:33.145Z,88819.78
2023-07-31T00:24:18.355Z,88816.56
2023-07-31T00:27:03.338Z,88815.34
2023-07-31T00:29:48.545Z,88819.06
2023-07-31T00:32:33.521Z,88820.13
2023-07-31T00:35:18.606Z,88811.00
2023-07-31T00:38:03.702Z,88808.75
2023-07-31T00:40:48.769Z,88813.38
2023-07-31T00:43:33.705Z,88814.09
2023-07-31T00:46:18.909Z,88805.22
2023-07-31T00:49:04.294Z,88800.69
2023-07-31T00:51:49.235Z,88810.34
2023-07-31T00:54:34.356Z,88811.03
2023-07-31T00:57:19.332Z,88823.34
2023-07-31T01:00:04.547Z,88814.41
2023-07-31T01:02:49.690Z,88815.69
2023-07-31T01:05:34.765Z,88815.22
2023-07-31T01:08:20.053Z,88814.72
2023-07-31T01:11:05.088Z,88811.75
2023-07-31T01:13:50.257Z,88807.72
2023-07-31T01:16:35.422Z,88809.88
2023-07-31T01:19:20.593Z,88808.69
2023-07-31T01:22:05.745Z,88810.94
2023-07-31T01:24:50.900Z,88804.13
2023-07-31T01:27:36.241Z,88803.38
2023-07-31T01:30:21.286Z,88801.44
2023-07-31T01:33:06.546Z,88798.13
2023-07-31T01:35:51.584Z,88801.44
2023-07-31T01:38:36.829Z,88799.56
2023-07-31T01:41:21.948Z,88799.06
2023-07-31T01:44:07.032Z,88800.66
2023-07-31T01:46:52.201Z,88791.22
2023-07-31T01:49:37.151Z,88790.91
2023-07-31T01:52:22.051Z,88783.72
2023-07-31T01:55:07.127Z,88787.19
2023-07-31T01:57:53.288Z,88788.44
2023-07-31T02:00:38.034Z,88792.47
2023-07-31T02:03:23.212Z,88787.72
2023-07-31T02:06:08.339Z,88791.59
2023-07-31T02:08:53.393Z,88786.34
2023-07-31T02:11:38.523Z,88774.94
2023-07-31T02:14:23.440Z,88772.13
2023-07-31T02:17:08.725Z,88766.56
2023-07-31T02:19:53.790Z,88776.00
2023-07-31T02:22:38.702Z,88772.84
2023-07-31T02:25:23.953Z,88771.81
2023-07-31T02:28:09.031Z,88770.78
2023-07-31T02:30:54.355Z,88773.97
2023-07-31T02:33:39.289Z,88766.63
2023-07-31T02:36:24.290Z,88769.78
2023-07-31T02:39:09.291Z,88760.47
2023-07-31T02:41:54.319Z,88762.22
2023-07-31T02:44:39.440Z,88766.94
2023-07-31T02:47:24.411Z,88765.38
2023-07-31T02:50:09.541Z,88756.28
2023-07-31T02:52:54.585Z,88758.59
2023-07-31T02:55:39.729Z,88759.13
2023-07-31T02:58:24.892Z,88765.44
2023-07-31T03:01:10.034Z,88774.19
2023-07-31T03:03:55.175Z,88765.81
2023-07-31T03:06:40.645Z,88758.78
2023-07-31T03:09:26.086Z,88768.94
2023-07-31T03:12:11.057Z,88774.34
2023-07-31T03:14:56.258Z,88772.25
2023-07-31T03:17:41.247Z,88770.69
2023-07-31T03:20:26.358Z,88774.53
2023-07-31T03:23:11.541Z,88768.03
2023-07-31T03:25:56.605Z,88765.91
2023-07-31T03:28:41.794Z,88758.19
2023-07-31T03:31:26.927Z,88761.34
2023-07-31T03:34:11.952Z,88750.91
2023-07-31T03:36:57.030Z,88758.25
2023-07-31T03:39:42.237Z,88755.81
2023-07-31T03:42:27.266Z,88753.94
2023-07-31T03:45:12.249Z,88763.19
2023-07-31T03:47:57.489Z,88764.59
2023-07-31T03:50:42.540Z,88771.59
2023-07-31T03:53:27.720Z,88768.06
2023-07-31T03:56:12.740Z,88773.72
2023-07-31T03:58:57.875Z,88770.91
2023-07-31T04:01:42.909Z,88779.13
2023-07-31T04:04:28.113Z,88788.06
2023-07-31T04:07:13.234Z,88791.56
2023-07-31T04:09:58.250Z,88789.63
2023-07-31T04:12:43.451Z,88790.28
2023-07-31T04:15:28.429Z,88786.97
2023-07-31T04:18:13.547Z,88787.66
2023-07-31T04:20:58.594Z,88781.19
2023-07-31T04:23:43.782Z,88779.03
2023-07-31T04:26:29.010Z,88777.59
2023-07-31T04:29:14.074Z,88772.13
2023-07-31T04:31:59.442Z,88776.72
2023-07-31T04:34:44.541Z,88769.16
2023-07-31T04:37:29.641Z,88767.72
2023-07-31T04:40:14.631Z,88759.63
2023-07-31T04:42:59.791Z,88764.19
2023-07-31T04:45:44.814Z,88753.16
2023-07-31T04:48:29.852Z,88747.16
2023-07-31T04:51:14.961Z,88745.72
2023-07-31T04:54:00.164Z,88740.41
2023-07-31T04:56:45.242Z,88741.28
2023-07-31T04:59:30.191Z,88745.28
2023-07-31T05:02:15.486Z,88745.94
2023-07-31T05:05:00.616Z,88747.34
2023-07-31T05:07:45.695Z,88753.78
2023-07-31T05:10:30.912Z,88770.41
2023-07-31T05:13:15.817Z,88770.44
2023-07-31T05:16:03.230Z,88764.88
2023-07-31T05:18:48.556Z,88761.88
2023-07-31T05:21:33.828Z,88768.84
2023-07-31T05:24:18.932Z,88769.84
2023-07-31T05:27:03.901Z,88769.09
2023-07-31T05:29:49.137Z,88762.41
2023-07-31T05:32:34.151Z,88750.59
2023-07-31T05:35:19.144Z,88764.69
2023-07-31T05:38:04.162Z,88770.16
2023-07-31T05:40:49.362Z,88757.34
2023-07-31T05:43:34.503Z,88759.63
2023-07-31T05:46:19.648Z,88775.84
2023-07-31T05:49:04.749Z,88775.69
2023-07-31T05:51:49.921Z,88776.81
2023-07-31T05:54:35.113Z,88769.78
2023-07-31T05:57:20.268Z,88764.66
2023-07-31T06:00:05.438Z,88770.91
2023-07-31T06:02:50.663Z,88776.78
2023-07-31T06:05:35.766Z,88784.03
2023-07-31T06:08:20.900Z,88775.41
2023-07-31T06:11:06.044Z,88779.56
2023-07-31T06:13:51.144Z,88773.81
2023-07-31T06:16:36.257Z,88776.50
2023-07-31T06:19:21.281Z,88777.16
2023-07-31T06:22:06.554Z,88772.81
2023-07-31T06:24:51.636Z,88780.00
2023-07-31T06:27:36.765Z,88779.88
2023-07-31T06:30:22.963Z,88770.25
2023-07-31T06:33:07.947Z,88779.28
2023-07-31T06:35:52.900Z,88779.59
2023-07-31T06:38:37.990Z,88780.38
2023-07-31T06:41:23.045Z,88780.28
2023-07-31T06:44:08.106Z,88774.16
2023-07-31T06:46:53.130Z,88779.31
2023-07-31T06:49:38.090Z,88779.34
2023-07-31T06:52:23.166Z,88777.16
2023-07-31T06:55:08.058Z,88765.06
2023-07-31T06:57:53.163Z,88764.06
2023-07-31T07:00:38.191Z,88771.31
2023-07-31T07:03:23.046Z,88769.41
2023-07-31T07:06:08.033Z,88754.94
2023-07-31T07:08:52.951Z,88750.13
2023-07-31T07:11:38.113Z,88738.84
2023-07-31T07:14:23.023Z,88724.31
2023-07-31T07:17:08.388Z,88728.13
2023-07-31T07:19:53.261Z,88728.69
2023-07-31T07:22:38.458Z,88730.34
2023-07-31T07:25:23.464Z,88734.28
2023-07-31T07:28:08.520Z,88735.28
2023-07-31T07:30:53.830Z,88738.16
2023-07-31T07:33:38.884Z,88739.75
2023-07-31T07:36:24.028Z,88733.34
2023-07-31T07:39:08.984Z,88735.59
2023-07-31T07:41:54.235Z,88729.88
2023-07-31T07:44:39.273Z,88734.78
2023-07-31T07:47:24.804Z,88730.97
2023-07-31T07:50:10.601Z,88716.78
2023-07-31T07:52:55.638Z,88718.69
2023-07-31T07:55:40.716Z,88715.94
2023-07-31T07:58:25.740Z,88711.97
2023-07-31T08:01:10.910Z,88708.53
2023-07-31T08:03:56.011Z,88709.84
2023-07-31T08:06:41.477Z,88697.56
2023-07-31T08:09:26.728Z,88707.25
2023-07-31T08:12:11.726Z,88699.41
2023-07-31T08:14:56.890Z,88696.59
2023-07-31T08:17:42.037Z,88699.75
2023-07-31T08:20:26.978Z,88708.28
2023-07-31T08:23:12.156Z,88704.44
2023-07-31T08:25:57.092Z,88699.84
2023-07-31T08:28:42.302Z,88698.31
2023-07-31T08:31:27.198Z,88699.63
2023-07-31T08:34:12.377Z,88697.88
2023-07-31T08:36:57.426Z,88704.47
2023-07-31T08:39:42.519Z,88701.72
2023-07-31T08:42:29.347Z,88691.09
2023-07-31T08:45:14.946Z,88694.22
2023-07-31T08:48:00.260Z,88690.06
2023-07-31T08:50:45.216Z,88687.78
2023-07-31T08:53:30.461Z,88683.84
2023-07-31T08:56:15.624Z,88686.66
2023-07-31T08:59:00.637Z,88681.28
2023-07-31T09:01:45.775Z,88684.09
2023-07-31T09:04:30.810Z,88675.16
2023-07-31T09:07:15.886Z,88677.09
2023-07-31T09:10:00.930Z,88680.50
2023-07-31T09:12:45.982Z,88669.50
2023-07-31T09:15:37.849Z,88673.00
2023-07-31T09:18:23.540Z,88668.44
2023-07-31T09:21:08.669Z,88663.44
2023-07-31T09:23:53.832Z,88664.34
2023-07-31T09:26:39.113Z,88664.81
2023-07-31T09:29:24.700Z,88664.69
2023-07-31T09:32:09.703Z,88665.34
2023-07-31T09:34:54.987Z,88663.31
2023-07-31T09:37:40.086Z,88650.38
2023-07-31T09:40:25.149Z,88648.41
2023-07-31T09:43:10.395Z,88648.16
2023-07-31T09:45:55.401Z,88655.69
2023-07-31T09:48:40.473Z,88643.34
2023-07-31T09:51:25.673Z,88648.53
2023-07-31T09:54:10.777Z,88652.25
2023-07-31T09:56:56.039Z,88649.00
2023-07-31T09:59:41.133Z,88639.44
2023-07-31T10:02:26.431Z,88641.97
2023-07-31T10:05:11.531Z,88640.94
2023-07-31T10:07:56.741Z,88635.75
2023-07-31T10:10:41.722Z,88644.28
2023-07-31T10:13:26.890Z,88634.72
2023-07-31T10:16:11.957Z,88637.34
2023-07-31T10:18:56.962Z,88634.53
2023-07-31T10:21:42.106Z,88634.50
2023-07-31T10:24:27.195Z,88625.13
2023-07-31T10:27:12.368Z,88613.50
2023-07-31T10:29:57.345Z,88612.06
2023-07-31T10:32:42.517Z,88611.28
2023-07-31T10:35:27.470Z,88605.06
2023-07-31T10:38:12.630Z,88593.59
2023-07-31T10:40:57.881Z,88600.81
2023-07-31T10:43:42.932Z,88594.25
2023-07-31T10:46:28.185Z,88586.00
2023-07-31T10:49:13.226Z,88584.81
2023-07-31T10:51:58.576Z,88591.63
2023-07-31T10:54:43.605Z,88582.44
2023-07-31T10:57:28.832Z,88581.81
2023-07-31T11:00:13.986Z,88578.56
2023-07-31T11:02:59.267Z,88586.00
2023-07-31T11:05:43.974Z,88584.63
2023-07-31T11:08:28.970Z,88584.03
2023-07-31T11:11:14.230Z,88579.19
2023-07-31T11:13:59.249Z,88571.81
2023-07-31T11:16:44.519Z,88568.03
2023-07-31T11:19:29.472Z,88560.66
2023-07-31T11:22:14.538Z,88556.00
2023-07-31T11:24:59.957Z,88550.63
2023-07-31T11:27:44.765Z,88548.72
2023-07-31T11:30:29.968Z,88555.28
2023-07-31T11:33:14.952Z,88543.34
2023-07-31T11:35:59.980Z,88539.28
2023-07-31T11:38:45.014Z,88531.59
2023-07-31T11:41:30.203Z,88529.47
2023-07-31T11:44:26.273Z,88526.31
2023-07-31T11:47:12.647Z,88518.66
2023-07-31T11:49:57.752Z,88522.97
2023-07-31T11:52:42.822Z,88515.19
2023-07-31T11:55:28.001Z,88506.50
2023-07-31T11:58:12.996Z,88503.16
2023-07-31T12:00:58.094Z,88498.91
2023-07-31T12:03:43.286Z,88491.16
2023-07-31T12:06:28.432Z,88490.75
2023-07-31T12:09:13.596Z,88485.72
2023-07-31T12:11:58.687Z,88485.03
2023-07-31T12:14:44.025Z,88485.41
2023-07-31T12:17:29.122Z,88492.63
2023-07-31T12:20:14.216Z,88482.34
2023-07-31T12:22:59.289Z,88479.41
2023-07-31T12:25:44.454Z,88489.19
2023-07-31T12:28:29.525Z,88479.16
2023-07-31T12:31:14.500Z,88485.00
2023-07-31T12:33:59.639Z,88482.66
2023-07-31T12:36:44.670Z,88486.22
2023-07-31T12:39:29.759Z,88487.00
2023-07-31T12:42:14.773Z,88479.97
2023-07-31T12:44:59.993Z,88479.66
2023-07-31T12:47:45.078Z,88481.69
2023-07-31T12:50:30.296Z,88472.66
2023-07-31T12:53:15.353Z,88476.88
2023-07-31T12:56:00.329Z,88469.78
2023-07-31T12:58:45.402Z,88464.34
2023-07-31T13:01:30.469Z,88468.31
2023-07-31T13:04:15.648Z,88456.59
2023-07-31T13:07:00.590Z,88451.94
2023-07-31T13:09:45.765Z,88450.91
2023-07-31T13:12:30.845Z,88445.66
2023-07-31T13:15:15.890Z,88439.56
2023-07-31T13:18:01.051Z,88431.47
2023-07-31T13:20:45.965Z,88438.34
2023-07-31T13:23:31.133Z,88434.41
2023-07-31T13:26:16.286Z,88424.81
2023-07-31T13:29:01.368Z,88430.00
2023-07-31T13:31:46.371Z,88425.47
2023-07-31T13:34:31.528Z,88434.69
2023-07-31T13:37:16.702Z,88427.16
2023-07-31T13:40:01.792Z,88422.25
2023-07-31T13:42:46.896Z,88419.69
2023-07-31T13:45:31.839Z,88421.66
2023-07-31T13:48:17.003Z,88425.78
2023-07-31T13:51:01.987Z,88418.91
2023-07-31T13:53:47.045Z,88409.28
2023-07-31T13:56:32.175Z,88409.31
2023-07-31T13:59:17.353Z,88410.34
2023-07-31T14:02:02.506Z,88407.91
2023-07-31T14:04:47.630Z,88402.63
2023-07-31T14:07:32.768Z,88402.97
2023-07-31T14:10:17.847Z,88394.31
2023-07-31T14:13:02.978Z,88397.19
2023-07-31T14:15:48.187Z,88387.63
2023-07-31T14:18:33.235Z,88386.78
2023-07-31T14:21:18.244Z,88391.88
2023-07-31T14:24:03.208Z,88386.88
2023-07-31T14:26:48.343Z,88379.94
2023-07-31T14:29:33.316Z,88370.16
2023-07-31T14:32:18.540Z,88370.47
2023-07-31T14:35:03.632Z,88374.19
2023-07-31T14:37:48.625Z,88365.75
2023-07-31T14:40:33.900Z,88364.91
2023-07-31T14:43:18.654Z,88364.25
2023-07-31T14:46:03.877Z,88361.16
2023-07-31T14:48:48.925Z,88361.09
2023-07-31T14:51:34.074Z,88356.16
2023-07-31T14:54:19.146Z,88348.00
2023-07-31T14:57:04.350Z,88350.44
2023-07-31T14:59:49.500Z,88348.28
2023-07-31T15:02:34.729Z,88345.28
2023-07-31T15:05:19.871Z,88340.91
2023-07-31T15:08:04.821Z,88336.63
2023-07-31T15:10:49.728Z,88341.09
2023-07-31T15:13:34.817Z,88342.00
2023-07-31T15:16:20.014Z,88336.25
2023-07-31T15:19:05.022Z,88338.06
2023-07-31T15:21:50.083Z,88334.16
2023-07-31T15:24:35.221Z,88336.13
2023-07-31T15:27:20.229Z,88335.41
2023-07-31T15:30:05.335Z,88340.59
2023-07-31T15:32:50.334Z,88335.66
2023-07-31T15:35:35.443Z,88329.75
2023-07-31T15:38:20.550Z,88328.03
2023-07-31T15:41:05.598Z,88320.19
2023-07-31T15:43:50.692Z,88324.47
2023-07-31T15:46:35.910Z,88329.31
2023-07-31T15:49:20.740Z,88314.25
2023-07-31T15:52:05.840Z,88326.63
2023-07-31T15:54:50.938Z,88323.56
2023-07-31T15:57:35.985Z,88318.56
2023-07-31T16:00:21.162Z,88317.19
2023-07-31T16:03:06.459Z,88322.81
2023-07-31T16:05:51.425Z,88322.13
2023-07-31T16:08:36.602Z,88318.94
2023-07-31T16:11:21.607Z,88317.72
2023-07-31T16:14:06.726Z,88316.56
2023-07-31T16:16:53.824Z,88312.16
2023-07-31T16:19:38.797Z,88307.66
2023-07-31T16:22:23.901Z,88310.16
2023-07-31T16:25:08.872Z,88298.56
2023-07-31T16:27:54.007Z,88301.00
2023-07-31T16:30:39.109Z,88292.63
2023-07-31T16:33:24.382Z,88286.28
2023-07-31T16:36:09.314Z,88292.31
2023-07-31T16:38:54.432Z,88299.25
2023-07-31T16:41:39.815Z,88297.03
2023-07-31T16:44:25.179Z,88301.16
2023-07-31T16:47:10.439Z,88304.63
2023-07-31T16:49:55.380Z,88312.19
2023-07-31T16:52:40.554Z,88311.41
2023-07-31T16:55:27.573Z,88312.09
2023-07-31T16:58:13.560Z,88312.41
2023-07-31T17:00:58.711Z,88312.88
2023-07-31T17:03:43.997Z,88310.72
2023-07-31T17:06:28.904Z,88318.19
2023-07-31T17:09:14.085Z,88323.50
2023-07-31T17:11:59.116Z,88316.47
2023-07-31T17:14:44.189Z,88301.75
2023-07-31T17:17:29.244Z,88310.91
2023-07-31T17:20:15.504Z,88317.78
2023-07-31T17:23:00.948Z,88318.56
2023-07-31T17:25:46.043Z,88315.69
2023-07-31T17:28:31.254Z,88309.81
2023-07-31T17:31:16.189Z,88327.47
2023-07-31T17:34:01.466Z,88330.88
2023-07-31T17:36:46.474Z,88336.47
2023-07-31T17:39:31.543Z,88330.59
2023-07-31T17:42:16.516Z,88345.50
2023-07-31T17:45:01.687Z,88342.69
2023-07-31T17:47:46.912Z,88341.47
2023-07-31T17:50:32.033Z,88332.53
2023-07-31T17:53:17.242Z,88324.91
2023-07-31T17:56:02.173Z,88321.28
2023-07-31T17:58:47.434Z,88332.84
2023-07-31T18:01:33.948Z,88334.50
2023-07-31T18:04:20.747Z,88333.38
2023-07-31T18:07:05.952Z,88330.47
2023-07-31T18:09:51.029Z,88327.81
2023-07-31T18:12:36.093Z,88327.19
2023-07-31T18:15:21.048Z,88330.97
2023-07-31T18:18:06.276Z,88323.47
2023-07-31T18:20:51.313Z,88318.06
2023-07-31T18:23:36.329Z,88320.03
2023-07-31T18:26:21.470Z,88315.63
2023-07-31T18:29:06.465Z,88311.25
2023-07-31T18:31:51.708Z,88324.25
2023-07-31T18:34:36.894Z,88332.75
2023-07-31T18:37:21.974Z,88338.28
2023-07-31T18:40:07.016Z,88342.13
2023-07-31T18:42:51.979Z,88344.31
2023-07-31T18:45:37.272Z,88347.19
2023-07-31T18:48:22.331Z,88343.94
2023-07-31T18:51:07.622Z,88327.25
2023-07-31T18:53:52.633Z,88332.63
2023-07-31T18:56:38.128Z,88329.91
2023-07-31T18:59:23.461Z,88327.94
2023-07-31T19:02:08.565Z,88335.78
2023-07-31T19:04:53.737Z,88348.59
2023-07-31T19:07:38.848Z,88355.09
2023-07-31T19:10:24.081Z,88361.06
2023-07-31T19:13:09.101Z,88355.69
2023-07-31T19:15:54.619Z,88354.09
2023-07-31T19:18:39.574Z,88350.25
2023-07-31T19:21:24.677Z,88352.41
2023-07-31T19:24:09.949Z,88348.97
2023-07-31T19:26:54.962Z,88355.38
2023-07-31T19:29:40.203Z,88360.38
2023-07-31T19:32:25.215Z,88367.25
2023-07-31T19:35:10.439Z,88371.91
2023-07-31T19:37:55.541Z,88373.00
2023-07-31T19:40:40.589Z,88377.50
2023-07-31T19:43:25.782Z,88374.66
2023-07-31T19:46:10.580Z,88375.22
2023-07-31T19:48:55.725Z,88373.16
2023-07-31T19:51:40.791Z,88371.59
2023-07-31T19:54:25.975Z,88360.06
2023-07-31T19:57:11.031Z,88365.28
2023-07-31T19:59:56.202Z,88363.22
2023-07-31T20:02:41.510Z,88358.28
2023-07-31T20:05:26.503Z,88365.69
2023-07-31T20:08:11.510Z,88368.53
2023-07-31T20:10:56.538Z,88367.84
2023-07-31T20:13:41.697Z,88376.31
2023-07-31T20:16:26.789Z,88381.28
2023-07-31T20:19:11.973Z,88364.69
2023-07-31T20:21:57.098Z,88364.84
2023-07-31T20:24:42.115Z,88361.44
2023-07-31T20:27:27.189Z,88369.31
2023-07-31T20:30:12.090Z,88372.97
2023-07-31T20:32:57.300Z,88375.69
2023-07-31T20:35:42.339Z,88368.34
2023-07-31T20:38:27.462Z,88368.81
2023-07-31T20:41:12.534Z,88371.69
2023-07-31T20:43:57.594Z,88356.59
2023-07-31T20:46:42.814Z,88359.06
2023-07-31T20:49:27.778Z,88363.56
2023-07-31T20:52:12.952Z,88358.66
2023-07-31T20:54:57.943Z,88359.94
2023-07-31T20:57:43.072Z,88356.00
2023-07-31T21:00:28.118Z,88358.34
2023-07-31T21:03:13.383Z,88365.72
2023-07-31T21:05:58.550Z,88368.06
2023-07-31T21:08:43.353Z,88365.41
2023-07-31T21:11:28.511Z,88368.06
2023-07-31T21:14:13.472Z,88359.66
2023-07-31T21:16:58.694Z,88366.94
2023-07-31T21:19:43.685Z,88356.22
2023-07-31T21:22:28.809Z,88356.97
2023-07-31T21:25:13.961Z,88346.78
2023-07-31T21:27:59.270Z,88342.25
2023-07-31T21:30:44.388Z,88344.34
2023-07-31T21:33:29.500Z,88343.75
2023-07-31T21:36:14.555Z,88327.03
2023-07-31T21:38:59.740Z,88340.09
2023-07-31T21:41:44.970Z,88334.09
2023-07-31T21:44:29.985Z,88328.00
2023-07-31T21:47:15.103Z,88336.81
2023-07-31T21:50:00.266Z,88331.97
2023-07-31T21:52:45.343Z,88330.13
2023-07-31T21:55:30.465Z,88330.41
2023-07-31T21:58:15.435Z,88340.41
2023-07-31T22:01:00.709Z,88334.78
2023-07-31T22:03:45.710Z,88326.47
2023-07-31T22:06:30.696Z,88330.97
2023-07-31T22:09:15.853Z,88334.22
2023-07-31T22:12:00.862Z,88324.09
2023-07-31T22:14:46.100Z,88321.44
2023-07-31T22:17:31.224Z,88318.34
2023-07-31T22:20:16.347Z,88317.66
2023-07-31T22:23:01.254Z,88311.88
2023-07-31T22:25:46.397Z,88308.94
2023-07-31T22:28:31.595Z,88311.34
2023-07-31T22:31:16.409Z,88301.75
2023-07-31T22:34:01.536Z,88299.50
2023-07-31T22:36:46.682Z,88299.50
2023-07-31T22:39:32.183Z,88295.16
2023-07-31T22:42:17.008Z,88289.16
2023-07-31T22:45:02.128Z,88298.97
2023-07-31T22:47:47.259Z,88287.28
2023-07-31T22:50:32.274Z,88288.47
2023-07-31T22:53:17.351Z,88283.63
2023-07-31T22:56:02.362Z,88281.78
2023-07-31T22:58:47.456Z,88271.66
2023-07-31T23:01:32.509Z,88272.34
2023-07-31T23:04:17.673Z,88270.38
2023-07-31T23:07:04.957Z,88259.69
2023-07-31T23:09:49.900Z,88263.50
2023-07-31T23:12:35.006Z,88256.94
2023-07-31T23:15:20.084Z,88249.34
2023-07-31T23:18:06.911Z,88240.22
2023-07-31T23:20:54.058Z,88248.09
2023-07-31T23:23:39.113Z,88256.50
2023-07-31T23:26:24.370Z,88250.63
2023-07-31T23:29:09.448Z,88248.44
2023-07-31T23:31:54.660Z,88241.53
2023-07-31T23:34:39.567Z,88239.34
2023-07-31T23:37:24.741Z,88235.13
2023-07-31T23:40:09.965Z,88228.00
2023-07-31T23:42:54.898Z,88216.59
2023-07-31T23:45:40.171Z,88219.06
2023-07-31T23:48:25.254Z,88208.47
2023-07-31T23:51:10.440Z,88211.00
2023-07-31T23:53:55.493Z,88200.97
2023-07-31T23:56:40.852Z,88192.00
2023-07-31T23:59:26.080Z,88191.72
